sensor_id;sensor_type;location;lat;lon;timestamp;temperature;humidity
18041;DHT22;9145;48.588;9.250;2023-08-24T00:00:24;21.70;99.90
18041;DHT22;9145;48.588;9.250;2023-08-24T00:02:51;21.70;99.90
18041;DHT22;9145;48.588;9.250;2023-08-24T00:05:18;21.60;99.90
18041;DHT22;9145;48.588;9.250;2023-08-24T00:07:45;21.50;99.90
18041;DHT22;9145;48.588;9.250;2023-08-24T00:10:13;21.40;99.90
18041;DHT22;9145;48.588;9.250;2023-08-24T00:12:41;21.40;99.90
18041;DHT22;9145;48.588;9.250;2023-08-24T00:15:09;21.30;99.90
18041;DHT22;9145;48.588;9.250;2023-08-24T00:17:37;21.20;99.90
18041;DHT22;9145;48.588;9.250;2023-08-24T00:20:06;21.20;99.90
18041;DHT22;9145;48.588;9.250;2023-08-24T00:22:36;21.10;99.90
18041;DHT22;9145;48.588;9.250;2023-08-24T00:25:04;21.10;99.90
18041;DHT22;9145;48.588;9.250;2023-08-24T00:27:31;21.00;99.90
18041;DHT22;9145;48.588;9.250;2023-08-24T00:30:00;21.00;99.90
18041;DHT22;9145;48.588;9.250;2023-08-24T00:32:26;20.90;99.90
18041;DHT22;9145;48.588;9.250;2023-08-24T00:34:53;20.80;99.90
18041;DHT22;9145;48.588;9.250;2023-08-24T00:37:20;20.80;99.90
18041;DHT22;9145;48.588;9.250;2023-08-24T00:39:47;20.90;99.90
18041;DHT22;9145;48.588;9.250;2023-08-24T00:42:13;20.90;99.90
18041;DHT22;9145;48.588;9.250;2023-08-24T00:44:40;20.90;99.90
18041;DHT22;9145;48.588;9.250;2023-08-24T00:47:10;20.90;99.90
18041;DHT22;9145;48.588;9.250;2023-08-24T00:49:37;20.90;99.90
18041;DHT22;9145;48.588;9.250;2023-08-24T00:52:04;21.00;99.90
18041;DHT22;9145;48.588;9.250;2023-08-24T00:54:32;21.00;99.90
18041;DHT22;9145;48.588;9.250;2023-08-24T00:56:59;21.00;99.90
18041;DHT22;9145;48.588;9.250;2023-08-24T00:59:25;21.00;99.90
18041;DHT22;9145;48.588;9.250;2023-08-24T01:01:52;20.90;99.90
18041;DHT22;9145;48.588;9.250;2023-08-24T01:04:21;20.80;99.90
18041;DHT22;9145;48.588;9.250;2023-08-24T01:06:49;20.70;99.90
18041;DHT22;9145;48.588;9.250;2023-08-24T01:09:16;20.60;99.90
18041;DHT22;9145;48.588;9.250;2023-08-24T01:11:52;20.60;99.90
18041;DHT22;9145;48.588;9.250;2023-08-24T01:14:33;20.60;99.90
18041;DHT22;9145;48.588;9.250;2023-08-24T01:17:03;20.70;99.90
18041;DHT22;9145;48.588;9.250;2023-08-24T01:19:37;20.70;99.90
18041;DHT22;9145;48.588;9.250;2023-08-24T01:22:08;20.60;99.90
18041;DHT22;9145;48.588;9.250;2023-08-24T01:24:39;20.50;99.90
18041;DHT22;9145;48.588;9.250;2023-08-24T01:27:08;20.40;99.90
18041;DHT22;9145;48.588;9.250;2023-08-24T01:29:37;20.40;99.90
18041;DHT22;9145;48.588;9.250;2023-08-24T01:32:08;20.40;99.90
18041;DHT22;9145;48.588;9.250;2023-08-24T01:34:36;20.40;99.90
18041;DHT22;9145;48.588;9.250;2023-08-24T01:37:03;20.30;99.90
18041;DHT22;9145;48.588;9.250;2023-08-24T01:39:35;20.20;99.90
18041;DHT22;9145;48.588;9.250;2023-08-24T01:42:10;20.30;99.90
18041;DHT22;9145;48.588;9.250;2023-08-24T01:44:42;20.40;99.90
18041;DHT22;9145;48.588;9.250;2023-08-24T01:47:13;20.40;99.90
18041;DHT22;9145;48.588;9.250;2023-08-24T01:49:40;20.40;99.90
18041;DHT22;9145;48.588;9.250;2023-08-24T01:52:09;20.30;99.90
18041;DHT22;9145;48.588;9.250;2023-08-24T01:54:36;20.20;99.90
18041;DHT22;9145;48.588;9.250;2023-08-24T01:57:04;20.10;99.90
18041;DHT22;9145;48.588;9.250;2023-08-24T01:59:33;20.10;99.90
18041;DHT22;9145;48.588;9.250;2023-08-24T02:02:00;20.10;99.90
18041;DHT22;9145;48.588;9.250;2023-08-24T02:04:27;20.10;99.90
18041;DHT22;9145;48.588;9.250;2023-08-24T02:06:53;20.20;99.90
18041;DHT22;9145;48.588;9.250;2023-08-24T02:09:20;20.20;99.90
18041;DHT22;9145;48.588;9.250;2023-08-24T02:11:47;20.20;99.90
18041;DHT22;9145;48.588;9.250;2023-08-24T02:14:14;20.10;99.90
18041;DHT22;9145;48.588;9.250;2023-08-24T02:16:42;20.20;99.90
18041;DHT22;9145;48.588;9.250;2023-08-24T02:19:09;20.20;99.90
18041;DHT22;9145;48.588;9.250;2023-08-24T02:21:36;20.10;99.90
18041;DHT22;9145;48.588;9.250;2023-08-24T02:24:03;20.00;99.90
18041;DHT22;9145;48.588;9.250;2023-08-24T02:26:30;19.90;99.90
18041;DHT22;9145;48.588;9.250;2023-08-24T02:28:57;19.90;99.90
18041;DHT22;9145;48.588;9.250;2023-08-24T02:31:24;19.90;99.90
18041;DHT22;9145;48.588;9.250;2023-08-24T02:33:52;19.80;99.90
18041;DHT22;9145;48.588;9.250;2023-08-24T02:36:19;19.80;99.90
18041;DHT22;9145;48.588;9.250;2023-08-24T02:38:46;19.80;99.90
18041;DHT22;9145;48.588;9.250;2023-08-24T02:41:13;19.80;99.90
18041;DHT22;9145;48.588;9.250;2023-08-24T02:43:40;19.80;99.90
18041;DHT22;9145;48.588;9.250;2023-08-24T02:46:08;19.70;99.90
18041;DHT22;9145;48.588;9.250;2023-08-24T02:48:35;19.70;99.90
18041;DHT22;9145;48.588;9.250;2023-08-24T02:51:04;19.70;99.90
18041;DHT22;9145;48.588;9.250;2023-08-24T02:53:31;19.70;99.90
18041;DHT22;9145;48.588;9.250;2023-08-24T02:55:58;19.70;99.90
18041;DHT22;9145;48.588;9.250;2023-08-24T02:58:25;19.70;99.90
18041;DHT22;9145;48.588;9.250;2023-08-24T03:00:52;19.70;99.90
18041;DHT22;9145;48.588;9.250;2023-08-24T03:03:19;19.70;99.90
18041;DHT22;9145;48.588;9.250;2023-08-24T03:05:55;19.80;99.90
18041;DHT22;9145;48.588;9.250;2023-08-24T03:08:24;19.80;99.90
18041;DHT22;9145;48.588;9.250;2023-08-24T03:10:51;19.90;99.90
18041;DHT22;9145;48.588;9.250;2023-08-24T03:13:18;20.00;99.90
18041;DHT22;9145;48.588;9.250;2023-08-24T03:15:45;20.00;99.90
18041;DHT22;9145;48.588;9.250;2023-08-24T03:18:12;20.00;99.90
18041;DHT22;9145;48.588;9.250;2023-08-24T03:20:39;20.00;99.90
18041;DHT22;9145;48.588;9.250;2023-08-24T03:23:06;19.90;99.90
18041;DHT22;9145;48.588;9.250;2023-08-24T03:25:37;19.70;99.90
18041;DHT22;9145;48.588;9.250;2023-08-24T03:28:05;19.70;99.90
18041;DHT22;9145;48.588;9.250;2023-08-24T03:30:32;19.70;99.90
18041;DHT22;9145;48.588;9.250;2023-08-24T03:32:59;19.70;99.90
18041;DHT22;9145;48.588;9.250;2023-08-24T03:35:26;19.70;99.90
18041;DHT22;9145;48.588;9.250;2023-08-24T03:37:53;19.60;99.90
18041;DHT22;9145;48.588;9.250;2023-08-24T03:40:20;19.60;99.90
18041;DHT22;9145;48.588;9.250;2023-08-24T03:42:48;19.60;99.90
18041;DHT22;9145;48.588;9.250;2023-08-24T03:45:15;19.60;99.90
18041;DHT22;9145;48.588;9.250;2023-08-24T03:47:41;19.60;99.90
18041;DHT22;9145;48.588;9.250;2023-08-24T03:50:09;19.60;99.90
18041;DHT22;9145;48.588;9.250;2023-08-24T03:52:36;19.60;99.90
18041;DHT22;9145;48.588;9.250;2023-08-24T03:55:05;19.50;99.90
18041;DHT22;9145;48.588;9.250;2023-08-24T03:57:32;19.50;99.90
18041;DHT22;9145;48.588;9.250;2023-08-24T04:00:01;19.50;99.90
18041;DHT22;9145;48.588;9.250;2023-08-24T04:02:29;19.50;99.90
18041;DHT22;9145;48.588;9.250;2023-08-24T04:04:56;19.50;99.90
18041;DHT22;9145;48.588;9.250;2023-08-24T04:07:23;19.40;99.90
18041;DHT22;9145;48.588;9.250;2023-08-24T04:09:50;19.40;99.90
18041;DHT22;9145;48.588;9.250;2023-08-24T04:12:16;19.30;99.90
18041;DHT22;9145;48.588;9.250;2023-08-24T04:14:43;19.30;99.90
18041;DHT22;9145;48.588;9.250;2023-08-24T04:17:11;19.30;99.90
18041;DHT22;9145;48.588;9.250;2023-08-24T04:19:39;19.30;99.90
18041;DHT22;9145;48.588;9.250;2023-08-24T04:22:06;19.30;99.90
18041;DHT22;9145;48.588;9.250;2023-08-24T04:24:32;19.30;99.90
18041;DHT22;9145;48.588;9.250;2023-08-24T04:26:59;19.30;99.90
18041;DHT22;9145;48.588;9.250;2023-08-24T04:29:27;19.30;99.90
18041;DHT22;9145;48.588;9.250;2023-08-24T04:31:53;19.30;99.90
18041;DHT22;9145;48.588;9.250;2023-08-24T04:34:22;19.30;99.90
18041;DHT22;9145;48.588;9.250;2023-08-24T04:36:48;19.40;99.90
18041;DHT22;9145;48.588;9.250;2023-08-24T04:39:15;19.30;99.90
18041;DHT22;9145;48.588;9.250;2023-08-24T04:41:44;19.30;99.90
18041;DHT22;9145;48.588;9.250;2023-08-24T04:44:10;19.30;99.90
18041;DHT22;9145;48.588;9.250;2023-08-24T04:46:37;19.30;99.90
18041;DHT22;9145;48.588;9.250;2023-08-24T04:49:04;19.30;99.90
18041;DHT22;9145;48.588;9.250;2023-08-24T04:51:32;19.30;99.90
18041;DHT22;9145;48.588;9.250;2023-08-24T04:53:59;19.30;99.90
18041;DHT22;9145;48.588;9.250;2023-08-24T04:56:26;19.40;99.90
18041;DHT22;9145;48.588;9.250;2023-08-24T04:58:53;19.40;99.90
18041;DHT22;9145;48.588;9.250;2023-08-24T05:01:20;19.40;99.90
18041;DHT22;9145;48.588;9.250;2023-08-24T05:03:47;19.40;99.90
18041;DHT22;9145;48.588;9.250;2023-08-24T05:06:14;19.40;99.90
18041;DHT22;9145;48.588;9.250;2023-08-24T05:08:42;19.50;99.90
18041;DHT22;9145;48.588;9.250;2023-08-24T05:11:12;19.50;99.90
18041;DHT22;9145;48.588;9.250;2023-08-24T05:13:39;19.50;99.90
18041;DHT22;9145;48.588;9.250;2023-08-24T05:16:06;19.50;99.90
18041;DHT22;9145;48.588;9.250;2023-08-24T05:18:34;19.60;99.90
18041;DHT22;9145;48.588;9.250;2023-08-24T05:21:01;19.60;99.90
18041;DHT22;9145;48.588;9.250;2023-08-24T05:23:28;19.70;99.90
18041;DHT22;9145;48.588;9.250;2023-08-24T05:25:57;19.80;99.90
18041;DHT22;9145;48.588;9.250;2023-08-24T05:28:25;19.90;99.90
18041;DHT22;9145;48.588;9.250;2023-08-24T05:30:51;19.90;99.90
18041;DHT22;9145;48.588;9.250;2023-08-24T05:33:19;20.00;99.90
18041;DHT22;9145;48.588;9.250;2023-08-24T05:35:47;20.00;99.90
18041;DHT22;9145;48.588;9.250;2023-08-24T05:38:14;20.10;99.90
18041;DHT22;9145;48.588;9.250;2023-08-24T05:40:42;20.20;99.90
18041;DHT22;9145;48.588;9.250;2023-08-24T05:43:10;20.10;99.90
18041;DHT22;9145;48.588;9.250;2023-08-24T05:45:37;20.20;99.90
18041;DHT22;9145;48.588;9.250;2023-08-24T05:48:06;20.30;99.90
18041;DHT22;9145;48.588;9.250;2023-08-24T05:50:33;20.30;99.90
18041;DHT22;9145;48.588;9.250;2023-08-24T05:53:00;20.20;99.90
18041;DHT22;9145;48.588;9.250;2023-08-24T05:55:26;20.20;99.90
18041;DHT22;9145;48.588;9.250;2023-08-24T05:57:53;20.30;99.90
18041;DHT22;9145;48.588;9.250;2023-08-24T06:00:21;20.30;99.90
18041;DHT22;9145;48.588;9.250;2023-08-24T06:02:48;20.40;99.90
18041;DHT22;9145;48.588;9.250;2023-08-24T06:05:15;20.50;99.90
18041;DHT22;9145;48.588;9.250;2023-08-24T06:07:43;20.60;99.90
18041;DHT22;9145;48.588;9.250;2023-08-24T06:10:11;20.70;99.90
18041;DHT22;9145;48.588;9.250;2023-08-24T06:12:38;20.80;99.90
18041;DHT22;9145;48.588;9.250;2023-08-24T06:15:05;20.80;99.90
18041;DHT22;9145;48.588;9.250;2023-08-24T06:17:36;20.80;99.90
18041;DHT22;9145;48.588;9.250;2023-08-24T06:20:03;20.80;99.90
18041;DHT22;9145;48.588;9.250;2023-08-24T06:22:30;20.80;99.90
18041;DHT22;9145;48.588;9.250;2023-08-24T06:24:57;20.80;99.90
18041;DHT22;9145;48.588;9.250;2023-08-24T06:27:25;20.80;99.90
18041;DHT22;9145;48.588;9.250;2023-08-24T06:29:52;20.70;99.90
18041;DHT22;9145;48.588;9.250;2023-08-24T06:32:19;20.70;99.90
18041;DHT22;9145;48.588;9.250;2023-08-24T06:34:47;20.80;99.90
18041;DHT22;9145;48.588;9.250;2023-08-24T06:37:14;20.80;99.90
18041;DHT22;9145;48.588;9.250;2023-08-24T06:39:41;20.80;99.90
18041;DHT22;9145;48.588;9.250;2023-08-24T06:42:07;20.90;99.90
18041;DHT22;9145;48.588;9.250;2023-08-24T06:44:34;20.90;99.90
18041;DHT22;9145;48.588;9.250;2023-08-24T06:47:01;21.00;99.90
18041;DHT22;9145;48.588;9.250;2023-08-24T06:49:28;21.00;99.90
18041;DHT22;9145;48.588;9.250;2023-08-24T06:51:56;21.00;99.90
18041;DHT22;9145;48.588;9.250;2023-08-24T06:54:23;21.10;99.90
18041;DHT22;9145;48.588;9.250;2023-08-24T06:56:50;21.10;99.90
18041;DHT22;9145;48.588;9.250;2023-08-24T06:59:17;21.20;99.90
18041;DHT22;9145;48.588;9.250;2023-08-24T07:01:44;21.20;99.90
18041;DHT22;9145;48.588;9.250;2023-08-24T07:04:12;21.30;99.90
18041;DHT22;9145;48.588;9.250;2023-08-24T07:06:39;21.40;99.90
18041;DHT22;9145;48.588;9.250;2023-08-24T07:09:09;21.40;99.90
18041;DHT22;9145;48.588;9.250;2023-08-24T07:11:36;21.40;99.90
18041;DHT22;9145;48.588;9.250;2023-08-24T07:14:02;21.50;99.90
18041;DHT22;9145;48.588;9.250;2023-08-24T07:16:30;21.50;99.90
18041;DHT22;9145;48.588;9.250;2023-08-24T07:18:57;21.50;99.90
18041;DHT22;9145;48.588;9.250;2023-08-24T07:21:24;21.50;99.90
18041;DHT22;9145;48.588;9.250;2023-08-24T07:23:51;21.60;99.90
18041;DHT22;9145;48.588;9.250;2023-08-24T07:26:19;21.80;99.90
18041;DHT22;9145;48.588;9.250;2023-08-24T07:28:46;22.00;99.90
18041;DHT22;9145;48.588;9.250;2023-08-24T07:31:13;22.20;99.90
18041;DHT22;9145;48.588;9.250;2023-08-24T07:33:40;22.30;99.90
18041;DHT22;9145;48.588;9.250;2023-08-24T07:36:09;22.50;99.90
18041;DHT22;9145;48.588;9.250;2023-08-24T07:38:36;22.60;99.90
18041;DHT22;9145;48.588;9.250;2023-08-24T07:41:03;22.70;99.90
18041;DHT22;9145;48.588;9.250;2023-08-24T07:43:31;22.90;99.90
18041;DHT22;9145;48.588;9.250;2023-08-24T07:45:58;23.00;99.90
18041;DHT22;9145;48.588;9.250;2023-08-24T07:48:25;23.10;99.90
18041;DHT22;9145;48.588;9.250;2023-08-24T07:50:51;23.10;99.90
18041;DHT22;9145;48.588;9.250;2023-08-24T07:53:18;23.10;99.90
18041;DHT22;9145;48.588;9.250;2023-08-24T07:55:45;23.10;99.90
18041;DHT22;9145;48.588;9.250;2023-08-24T07:58:12;23.00;99.90
18041;DHT22;9145;48.588;9.250;2023-08-24T08:00:40;23.00;99.90
18041;DHT22;9145;48.588;9.250;2023-08-24T08:03:07;23.00;99.90
18041;DHT22;9145;48.588;9.250;2023-08-24T08:05:34;23.00;99.90
18041;DHT22;9145;48.588;9.250;2023-08-24T08:08:01;23.10;99.90
18041;DHT22;9145;48.588;9.250;2023-08-24T08:10:27;23.30;99.90
18041;DHT22;9145;48.588;9.250;2023-08-24T08:12:54;23.40;99.90
18041;DHT22;9145;48.588;9.250;2023-08-24T08:15:21;23.50;99.90
18041;DHT22;9145;48.588;9.250;2023-08-24T08:17:49;23.60;99.90
18041;DHT22;9145;48.588;9.250;2023-08-24T08:20:16;23.60;99.90
18041;DHT22;9145;48.588;9.250;2023-08-24T08:22:43;23.80;99.90
18041;DHT22;9145;48.588;9.250;2023-08-24T08:25:10;24.00;99.90
18041;DHT22;9145;48.588;9.250;2023-08-24T08:27:37;24.20;99.90
18041;DHT22;9145;48.588;9.250;2023-08-24T08:30:06;24.20;99.90
18041;DHT22;9145;48.588;9.250;2023-08-24T08:32:33;24.40;99.90
18041;DHT22;9145;48.588;9.250;2023-08-24T08:35:02;24.50;99.90
18041;DHT22;9145;48.588;9.250;2023-08-24T08:37:30;24.70;99.90
18041;DHT22;9145;48.588;9.250;2023-08-24T08:39:58;25.00;99.90
18041;DHT22;9145;48.588;9.250;2023-08-24T08:42:25;25.00;99.90
18041;DHT22;9145;48.588;9.250;2023-08-24T08:44:53;25.10;99.90
18041;DHT22;9145;48.588;9.250;2023-08-24T08:47:21;25.30;99.90
18041;DHT22;9145;48.588;9.250;2023-08-24T08:49:49;25.30;99.90
18041;DHT22;9145;48.588;9.250;2023-08-24T08:52:17;25.30;99.90
18041;DHT22;9145;48.588;9.250;2023-08-24T08:54:44;25.50;99.90
18041;DHT22;9145;48.588;9.250;2023-08-24T08:57:11;25.60;99.90
18041;DHT22;9145;48.588;9.250;2023-08-24T08:59:38;26.00;99.90
18041;DHT22;9145;48.588;9.250;2023-08-24T09:02:06;26.20;99.90
18041;DHT22;9145;48.588;9.250;2023-08-24T09:04:35;26.50;99.90
18041;DHT22;9145;48.588;9.250;2023-08-24T09:07:02;26.60;99.90
18041;DHT22;9145;48.588;9.250;2023-08-24T09:09:36;26.70;99.90
18041;DHT22;9145;48.588;9.250;2023-08-24T09:12:06;26.80;99.90
18041;DHT22;9145;48.588;9.250;2023-08-24T09:14:33;27.00;99.90
18041;DHT22;9145;48.588;9.250;2023-08-24T09:17:00;27.20;99.90
18041;DHT22;9145;48.588;9.250;2023-08-24T09:19:29;27.30;99.90
18041;DHT22;9145;48.588;9.250;2023-08-24T09:21:57;27.50;99.90
18041;DHT22;9145;48.588;9.250;2023-08-24T09:24:29;27.80;99.90
18041;DHT22;9145;48.588;9.250;2023-08-24T09:26:58;28.00;99.90
18041;DHT22;9145;48.588;9.250;2023-08-24T09:29:25;28.20;99.90
18041;DHT22;9145;48.588;9.250;2023-08-24T09:31:52;28.40;99.90
18041;DHT22;9145;48.588;9.250;2023-08-24T09:34:19;28.50;99.90
18041;DHT22;9145;48.588;9.250;2023-08-24T09:36:46;28.70;99.90
18041;DHT22;9145;48.588;9.250;2023-08-24T09:39:16;28.80;99.90
18041;DHT22;9145;48.588;9.250;2023-08-24T09:41:46;28.90;99.90
18041;DHT22;9145;48.588;9.250;2023-08-24T09:44:14;29.00;99.90
18041;DHT22;9145;48.588;9.250;2023-08-24T09:46:43;28.90;99.90
18041;DHT22;9145;48.588;9.250;2023-08-24T09:49:11;29.00;99.90
18041;DHT22;9145;48.588;9.250;2023-08-24T09:51:39;29.10;99.90
18041;DHT22;9145;48.588;9.250;2023-08-24T09:54:07;29.30;99.90
18041;DHT22;9145;48.588;9.250;2023-08-24T09:56:36;29.60;99.90
18041;DHT22;9145;48.588;9.250;2023-08-24T09:59:10;29.70;99.90
18041;DHT22;9145;48.588;9.250;2023-08-24T10:01:41;29.80;99.90
18041;DHT22;9145;48.588;9.250;2023-08-24T10:04:09;29.80;99.90
18041;DHT22;9145;48.588;9.250;2023-08-24T10:06:36;30.00;99.90
18041;DHT22;9145;48.588;9.250;2023-08-24T10:09:08;30.00;99.90
18041;DHT22;9145;48.588;9.250;2023-08-24T10:11:40;29.90;99.90
18041;DHT22;9145;48.588;9.250;2023-08-24T10:14:15;30.00;99.90
18041;DHT22;9145;48.588;9.250;2023-08-24T10:16:46;30.10;99.90
18041;DHT22;9145;48.588;9.250;2023-08-24T10:19:13;30.30;99.90
18041;DHT22;9145;48.588;9.250;2023-08-24T10:21:42;30.50;99.90
18041;DHT22;9145;48.588;9.250;2023-08-24T10:24:09;30.70;99.90
18041;DHT22;9145;48.588;9.250;2023-08-24T10:26:39;30.60;99.90
18041;DHT22;9145;48.588;9.250;2023-08-24T10:29:06;30.50;99.90
18041;DHT22;9145;48.588;9.250;2023-08-24T10:31:33;30.60;99.90
18041;DHT22;9145;48.588;9.250;2023-08-24T10:34:04;31.00;99.90
18041;DHT22;9145;48.588;9.250;2023-08-24T10:36:31;31.20;99.90
18041;DHT22;9145;48.588;9.250;2023-08-24T10:39:02;31.50;99.90
18041;DHT22;9145;48.588;9.250;2023-08-24T10:41:46;31.60;99.90
18041;DHT22;9145;48.588;9.250;2023-08-24T10:44:20;31.70;99.90
18041;DHT22;9145;48.588;9.250;2023-08-24T10:47:05;31.60;99.90
18041;DHT22;9145;48.588;9.250;2023-08-24T10:49:33;31.70;99.90
18041;DHT22;9145;48.588;9.250;2023-08-24T10:52:18;32.00;99.90
18041;DHT22;9145;48.588;9.250;2023-08-24T10:54:46;32.10;99.90
18041;DHT22;9145;48.588;9.250;2023-08-24T10:57:24;32.30;99.90
18041;DHT22;9145;48.588;9.250;2023-08-24T11:00:08;32.60;99.90
18041;DHT22;9145;48.588;9.250;2023-08-24T11:02:42;32.40;99.90
18041;DHT22;9145;48.588;9.250;2023-08-24T11:05:18;32.10;99.90
18041;DHT22;9145;48.588;9.250;2023-08-24T11:07:50;32.00;99.90
18041;DHT22;9145;48.588;9.250;2023-08-24T11:10:17;31.90;99.90
18041;DHT22;9145;48.588;9.250;2023-08-24T11:13:10;31.90;99.90
18041;DHT22;9145;48.588;9.250;2023-08-24T11:15:38;32.00;99.90
18041;DHT22;9145;48.588;9.250;2023-08-24T11:18:19;32.00;99.90
18041;DHT22;9145;48.588;9.250;2023-08-24T11:20:50;32.20;99.90
18041;DHT22;9145;48.588;9.250;2023-08-24T11:23:17;32.00;99.90
18041;DHT22;9145;48.588;9.250;2023-08-24T11:25:45;32.00;99.90
18041;DHT22;9145;48.588;9.250;2023-08-24T11:28:17;32.10;99.90
18041;DHT22;9145;48.588;9.250;2023-08-24T11:30:44;32.30;99.90
18041;DHT22;9145;48.588;9.250;2023-08-24T11:33:11;32.30;99.90
18041;DHT22;9145;48.588;9.250;2023-08-24T11:35:40;32.30;99.90
18041;DHT22;9145;48.588;9.250;2023-08-24T11:38:08;32.30;99.90
18041;DHT22;9145;48.588;9.250;2023-08-24T11:40:35;32.50;99.90
18041;DHT22;9145;48.588;9.250;2023-08-24T11:43:03;32.70;99.90
18041;DHT22;9145;48.588;9.250;2023-08-24T11:45:31;33.10;99.90
18041;DHT22;9145;48.588;9.250;2023-08-24T11:47:58;33.20;99.90
18041;DHT22;9145;48.588;9.250;2023-08-24T11:50:26;33.20;99.90
18041;DHT22;9145;48.588;9.250;2023-08-24T11:52:53;33.40;99.90
18041;DHT22;9145;48.588;9.250;2023-08-24T11:55:22;33.50;99.90
18041;DHT22;9145;48.588;9.250;2023-08-24T11:57:49;33.70;99.90
18041;DHT22;9145;48.588;9.250;2023-08-24T12:00:17;33.90;99.90
18041;DHT22;9145;48.588;9.250;2023-08-24T12:02:45;34.40;99.90
18041;DHT22;9145;48.588;9.250;2023-08-24T12:05:22;34.60;99.90
18041;DHT22;9145;48.588;9.250;2023-08-24T12:07:50;34.70;99.90
18041;DHT22;9145;48.588;9.250;2023-08-24T12:10:17;35.00;99.90
18041;DHT22;9145;48.588;9.250;2023-08-24T12:12:46;35.00;99.90
18041;DHT22;9145;48.588;9.250;2023-08-24T12:15:16;34.70;99.90
18041;DHT22;9145;48.588;9.250;2023-08-24T12:17:43;34.40;99.90
18041;DHT22;9145;48.588;9.250;2023-08-24T12:20:18;34.40;99.90
18041;DHT22;9145;48.588;9.250;2023-08-24T12:22:54;34.60;99.90
18041;DHT22;9145;48.588;9.250;2023-08-24T12:25:24;34.80;99.90
18041;DHT22;9145;48.588;9.250;2023-08-24T12:27:54;35.00;99.90
18041;DHT22;9145;48.588;9.250;2023-08-24T12:30:43;35.30;99.90
18041;DHT22;9145;48.588;9.250;2023-08-24T12:33:21;35.40;99.90
18041;DHT22;9145;48.588;9.250;2023-08-24T12:35:47;35.30;98.80
18041;DHT22;9145;48.588;9.250;2023-08-24T12:38:14;35.30;99.60
18041;DHT22;9145;48.588;9.250;2023-08-24T12:40:41;35.50;98.80
18041;DHT22;9145;48.588;9.250;2023-08-24T12:43:09;35.70;99.90
18041;DHT22;9145;48.588;9.250;2023-08-24T12:45:36;35.90;98.90
18041;DHT22;9145;48.588;9.250;2023-08-24T12:48:04;36.10;98.00
18041;DHT22;9145;48.588;9.250;2023-08-24T12:50:31;36.40;97.80
18041;DHT22;9145;48.588;9.250;2023-08-24T12:52:58;36.50;97.20
18041;DHT22;9145;48.588;9.250;2023-08-24T12:55:25;36.50;97.70
18041;DHT22;9145;48.588;9.250;2023-08-24T12:57:52;36.40;97.70
18041;DHT22;9145;48.588;9.250;2023-08-24T13:00:21;36.40;98.30
18041;DHT22;9145;48.588;9.250;2023-08-24T13:02:48;36.40;96.70
18041;DHT22;9145;48.588;9.250;2023-08-24T13:05:15;36.40;96.80
18041;DHT22;9145;48.588;9.250;2023-08-24T13:07:42;36.40;98.70
18041;DHT22;9145;48.588;9.250;2023-08-24T13:10:09;36.30;96.90
18041;DHT22;9145;48.588;9.250;2023-08-24T13:12:37;36.10;96.90
18041;DHT22;9145;48.588;9.250;2023-08-24T13:15:04;36.10;97.20
18041;DHT22;9145;48.588;9.250;2023-08-24T13:17:33;36.30;96.60
18041;DHT22;9145;48.588;9.250;2023-08-24T13:20:00;36.40;94.90
18041;DHT22;9145;48.588;9.250;2023-08-24T13:22:26;36.40;95.60
18041;DHT22;9145;48.588;9.250;2023-08-24T13:24:54;36.40;95.50
18041;DHT22;9145;48.588;9.250;2023-08-24T13:27:21;36.50;95.10
18041;DHT22;9145;48.588;9.250;2023-08-24T13:29:47;36.80;95.70
18041;DHT22;9145;48.588;9.250;2023-08-24T13:32:14;36.60;94.90
18041;DHT22;9145;48.588;9.250;2023-08-24T13:34:42;36.30;95.20
18041;DHT22;9145;48.588;9.250;2023-08-24T13:37:09;36.10;95.60
18041;DHT22;9145;48.588;9.250;2023-08-24T13:39:36;35.80;94.50
18041;DHT22;9145;48.588;9.250;2023-08-24T13:42:03;35.90;94.80
18041;DHT22;9145;48.588;9.250;2023-08-24T13:44:30;36.20;94.30
18041;DHT22;9145;48.588;9.250;2023-08-24T13:46:56;36.40;93.30
18041;DHT22;9145;48.588;9.250;2023-08-24T13:49:23;36.20;94.20
18041;DHT22;9145;48.588;9.250;2023-08-24T13:51:51;36.30;94.50
18041;DHT22;9145;48.588;9.250;2023-08-24T13:54:19;36.80;95.00
18041;DHT22;9145;48.588;9.250;2023-08-24T13:56:48;37.30;93.50
18041;DHT22;9145;48.588;9.250;2023-08-24T13:59:15;37.70;93.40
18041;DHT22;9145;48.588;9.250;2023-08-24T14:01:42;37.90;92.60
18041;DHT22;9145;48.588;9.250;2023-08-24T14:04:09;37.80;92.10
18041;DHT22;9145;48.588;9.250;2023-08-24T14:06:36;37.10;92.80
18041;DHT22;9145;48.588;9.250;2023-08-24T14:09:04;36.50;93.10
18041;DHT22;9145;48.588;9.250;2023-08-24T14:11:32;36.10;93.20
18041;DHT22;9145;48.588;9.250;2023-08-24T14:13:59;35.70;93.70
18041;DHT22;9145;48.588;9.250;2023-08-24T14:16:26;35.50;94.10
18041;DHT22;9145;48.588;9.250;2023-08-24T14:18:53;35.50;94.30
18041;DHT22;9145;48.588;9.250;2023-08-24T14:21:20;35.60;94.10
18041;DHT22;9145;48.588;9.250;2023-08-24T14:23:49;35.60;94.00
18041;DHT22;9145;48.588;9.250;2023-08-24T14:26:17;35.70;94.30
18041;DHT22;9145;48.588;9.250;2023-08-24T14:28:48;36.00;94.10
18041;DHT22;9145;48.588;9.250;2023-08-24T14:31:15;35.90;93.90
18041;DHT22;9145;48.588;9.250;2023-08-24T14:33:42;36.00;95.10
18041;DHT22;9145;48.588;9.250;2023-08-24T14:36:09;36.40;94.50
18041;DHT22;9145;48.588;9.250;2023-08-24T14:38:38;36.70;94.70
18041;DHT22;9145;48.588;9.250;2023-08-24T14:41:05;36.60;93.60
18041;DHT22;9145;48.588;9.250;2023-08-24T14:43:33;36.30;94.90
18041;DHT22;9145;48.588;9.250;2023-08-24T14:46:00;35.90;95.00
18041;DHT22;9145;48.588;9.250;2023-08-24T14:48:27;35.50;94.80
18041;DHT22;9145;48.588;9.250;2023-08-24T14:50:54;35.20;94.80
18041;DHT22;9145;48.588;9.250;2023-08-24T14:53:22;34.80;95.30
18041;DHT22;9145;48.588;9.250;2023-08-24T14:55:49;34.70;95.60
18041;DHT22;9145;48.588;9.250;2023-08-24T14:58:16;34.70;95.60
18041;DHT22;9145;48.588;9.250;2023-08-24T15:00:44;34.60;95.90
18041;DHT22;9145;48.588;9.250;2023-08-24T15:03:11;34.50;95.30
18041;DHT22;9145;48.588;9.250;2023-08-24T15:05:41;34.30;95.70
18041;DHT22;9145;48.588;9.250;2023-08-24T15:08:08;34.20;95.10
18041;DHT22;9145;48.588;9.250;2023-08-24T15:10:36;34.10;95.90
18041;DHT22;9145;48.588;9.250;2023-08-24T15:13:04;34.00;96.20
18041;DHT22;9145;48.588;9.250;2023-08-24T15:15:31;33.90;96.60
18041;DHT22;9145;48.588;9.250;2023-08-24T15:17:59;33.70;96.70
18041;DHT22;9145;48.588;9.250;2023-08-24T15:20:26;33.60;97.20
18041;DHT22;9145;48.588;9.250;2023-08-24T15:22:53;33.40;97.90
18041;DHT22;9145;48.588;9.250;2023-08-24T15:25:19;33.10;98.70
18041;DHT22;9145;48.588;9.250;2023-08-24T15:27:47;32.50;99.90
18041;DHT22;9145;48.588;9.250;2023-08-24T15:30:14;32.00;99.90
18041;DHT22;9145;48.588;9.250;2023-08-24T15:32:40;31.80;99.90
18041;DHT22;9145;48.588;9.250;2023-08-24T15:35:09;31.50;99.90
18041;DHT22;9145;48.588;9.250;2023-08-24T15:37:36;30.90;99.90
18041;DHT22;9145;48.588;9.250;2023-08-24T15:40:06;30.60;99.90
18041;DHT22;9145;48.588;9.250;2023-08-24T15:42:33;30.20;99.90
18041;DHT22;9145;48.588;9.250;2023-08-24T15:45:00;29.80;99.90
18041;DHT22;9145;48.588;9.250;2023-08-24T15:47:27;30.20;99.90
18041;DHT22;9145;48.588;9.250;2023-08-24T15:49:54;30.40;99.90